Time;durP1;ratioP1;P1;durP2;ratioP2;P2;SDS_P1;SDS_P2;PMS_P1;PMS_P2;Temp;Humidity;BMP_temperature;BMP_pressure;BME280_temperature;BME280_humidity;BME280_pressure;Samples;Min_cycle;Max_cycle;Signal;HPM_P1;HPM_P2
2023/09/14 00:02:07;;;;;;;4.73;3.23;;;19.70;99.90;;;;;;5078225;28;20179;-79
2023/09/14 00:04:33;;;;;;;3.37;3.00;;;19.70;99.90;;;;;;5076703;28;20274;-78
2023/09/14 00:06:59;;;;;;;3.10;2.90;;;19.80;99.90;;;;;;5075030;28;20246;-80
2023/09/14 00:09:26;;;;;;;2.93;2.73;;;19.70;99.90;;;;;;5074743;28;20228;-78
2023/09/14 00:11:52;;;;;;;3.07;2.83;;;20.00;99.90;;;;;;5074435;28;20669;-78
2023/09/14 00:14:18;;;;;;;3.17;2.97;;;19.70;99.90;;;;;;5074941;28;20171;-79
2023/09/14 00:16:46;;;;;;;3.50;3.30;;;19.80;99.90;;;;;;5074904;28;20171;-78
2023/09/14 00:19:12;;;;;;;3.30;3.00;;;19.80;99.90;;;;;;5076981;28;20171;-77
2023/09/14 00:21:42;;;;;;;4.90;3.40;;;19.80;99.90;;;;;;5060776;28;20175;-79
2023/09/14 00:24:07;;;;;;;4.00;3.70;;;19.80;99.90;;;;;;5083884;28;20171;-80
2023/09/14 00:26:33;;;;;;;3.50;3.20;;;19.80;99.90;;;;;;5083250;28;20209;-79
2023/09/14 00:28:59;;;;;;;3.40;3.20;;;19.80;99.90;;;;;;5077446;28;20251;-78
2023/09/14 00:31:25;;;;;;;3.13;3.03;;;19.90;99.90;;;;;;5077579;28;20537;-77
2023/09/14 00:33:50;;;;;;;3.70;3.40;;;20.00;99.90;;;;;;5087396;28;20227;-78
2023/09/14 00:36:16;;;;;;;3.33;3.10;;;19.70;99.90;;;;;;5083295;28;20190;-78
2023/09/14 00:38:42;;;;;;;3.10;2.90;;;19.80;99.90;;;;;;5085425;28;20163;-79
2023/09/14 00:41:08;;;;;;;3.87;3.43;;;20.20;99.90;;;;;;5069675;28;20171;-80
2023/09/14 00:43:34;;;;;;;3.57;3.27;;;19.60;99.90;;;;;;5087211;28;20234;-79
2023/09/14 00:46:00;;;;;;;4.27;3.60;;;19.60;99.90;;;;;;5089871;28;20221;-78
2023/09/14 00:48:28;;;;;;;4.50;3.43;;;18.60;99.90;;;;;;5090705;28;20171;-80
2023/09/14 00:50:54;;;;;;;3.17;2.97;;;19.60;99.90;;;;;;5079650;28;20179;-78
2023/09/14 00:53:20;;;;;;;4.30;3.27;;;19.50;99.90;;;;;;5097549;28;20181;-80
2023/09/14 00:55:46;;;;;;;3.57;3.10;;;19.70;99.90;;;;;;5078154;28;20191;-78
2023/09/14 00:58:15;;;;;;;3.20;3.03;;;19.70;99.90;;;;;;5083869;28;20167;-77
2023/09/14 01:00:45;;;;;;;3.90;3.33;;;19.80;99.90;;;;;;5058660;28;20175;-78
2023/09/14 01:03:14;;;;;;;3.00;2.80;;;19.70;99.90;;;;;;5078488;28;20171;-78
2023/09/14 01:05:40;;;;;;;3.30;3.03;;;19.70;99.90;;;;;;5082637;28;20171;-78
2023/09/14 01:08:07;;;;;;;3.60;3.40;;;19.80;99.90;;;;;;5066792;28;20197;-79
2023/09/14 01:10:33;;;;;;;3.37;3.17;;;19.80;99.90;;;;;;5059445;28;20545;-78
2023/09/14 01:12:58;;;;;;;3.43;3.23;;;19.60;99.90;;;;;;5075288;28;20183;-79
2023/09/14 01:15:32;;;;;;;3.10;2.90;;;19.70;99.90;;;;;;5056572;28;20182;-79
2023/09/14 01:18:07;;;;;;;3.63;3.33;;;19.70;99.90;;;;;;5074231;28;20577;-78
2023/09/14 01:20:57;;;;;;;4.20;3.27;;;19.60;99.90;;;;;;5074946;28;20254;-77
2023/09/14 01:23:37;;;;;;;3.87;3.57;;;20.70;99.90;;;;;;5074658;28;20273;-79
2023/09/14 01:26:04;;;;;;;3.20;2.97;;;19.60;99.90;;;;;;5074078;28;20195;-78
2023/09/14 01:28:30;;;;;;;4.53;3.30;;;19.50;99.90;;;;;;5056487;28;20179;-78
2023/09/14 01:30:55;;;;;;;3.30;3.10;;;19.70;99.90;;;;;;5057092;28;20293;-77
2023/09/14 01:33:24;;;;;;;3.70;3.30;;;19.70;99.90;;;;;;5073726;28;20272;-78
2023/09/14 01:36:00;;;;;;;3.50;3.30;;;19.50;99.90;;;;;;5075273;28;20657;-79
2023/09/14 01:38:32;;;;;;;3.90;3.60;;;19.70;99.90;;;;;;5072617;28;20167;-78
2023/09/14 01:40:59;;;;;;;3.20;3.10;;;19.50;99.90;;;;;;5067682;28;20168;-76
2023/09/14 01:43:25;;;;;;;3.43;3.23;;;19.70;99.90;;;;;;5066452;28;20232;-78
2023/09/14 01:45:52;;;;;;;3.70;3.50;;;19.50;99.90;;;;;;5060038;28;20171;-76
2023/09/14 01:48:19;;;;;;;3.80;3.30;;;19.60;99.90;;;;;;5077761;28;20507;-78
2023/09/14 01:50:46;;;;;;;3.73;3.43;;;19.70;99.90;;;;;;5059600;28;20216;-78
2023/09/14 01:53:12;;;;;;;3.70;3.40;;;19.60;99.90;;;;;;5077545;28;20175;-78
2023/09/14 01:55:38;;;;;;;3.80;3.60;;;19.50;99.90;;;;;;5080679;28;20178;-78
2023/09/14 01:58:04;;;;;;;4.10;3.80;;;19.50;99.90;;;;;;5060034;28;20715;-77
2023/09/14 02:00:30;;;;;;;3.67;3.47;;;19.60;99.90;;;;;;5058788;28;20634;-78
2023/09/14 02:02:56;;;;;;;4.10;3.80;;;19.50;99.90;;;;;;5077256;28;20174;-77
2023/09/14 02:05:21;;;;;;;4.00;3.73;;;19.40;99.90;;;;;;5076924;28;20622;-79
2023/09/14 02:07:47;;;;;;;4.13;3.80;;;19.50;99.90;;;;;;5058847;28;20568;-77
2023/09/14 02:10:14;;;;;;;5.90;3.60;;;19.50;99.90;;;;;;5077235;28;20167;-79
2023/09/14 02:12:40;;;;;;;4.17;3.87;;;19.40;99.90;;;;;;5086965;28;20258;-77
2023/09/14 02:15:08;;;;;;;3.87;3.47;;;19.40;99.90;;;;;;5083722;28;20685;-78
2023/09/14 02:17:34;;;;;;;3.63;3.33;;;19.40;99.90;;;;;;5092730;28;20238;-81
2023/09/14 02:20:00;;;;;;;4.13;3.83;;;19.30;99.90;;;;;;5081924;28;20197;-78
2023/09/14 02:22:26;;;;;;;4.23;3.93;;;19.30;99.90;;;;;;5079410;28;20175;-79
2023/09/14 02:24:52;;;;;;;4.10;3.80;;;19.40;99.90;;;;;;5084465;28;20183;-79
2023/09/14 02:27:17;;;;;;;3.80;3.43;;;19.40;99.90;;;;;;5085433;28;20247;-79
2023/09/14 02:29:43;;;;;;;3.30;3.10;;;19.50;99.90;;;;;;5098096;28;20202;-79
2023/09/14 02:32:09;;;;;;;3.57;3.27;;;19.40;99.90;;;;;;5078868;28;20664;-76
2023/09/14 02:34:35;;;;;;;3.63;3.33;;;19.40;99.90;;;;;;5076629;28;20214;-78
2023/09/14 02:37:02;;;;;;;3.60;3.30;;;20.00;99.90;;;;;;5076615;28;20251;-80
2023/09/14 02:39:28;;;;;;;3.10;2.90;;;19.40;99.90;;;;;;5084536;28;20175;-76
2023/09/14 02:41:54;;;;;;;3.53;3.30;;;19.40;99.90;;;;;;5087598;28;20213;-78
2023/09/14 02:44:19;;;;;;;3.20;2.97;;;19.30;99.90;;;;;;5081245;28;20178;-78
2023/09/14 02:46:45;;;;;;;3.40;3.20;;;19.40;99.90;;;;;;5083495;28;20662;-80
2023/09/14 02:49:11;;;;;;;3.10;2.90;;;19.40;99.90;;;;;;5062048;28;20171;-76
2023/09/14 02:51:37;;;;;;;4.23;3.40;;;19.40;99.90;;;;;;5075305;28;20179;-77
2023/09/14 02:54:03;;;;;;;3.50;3.30;;;19.20;99.90;;;;;;5062993;28;20183;-77
2023/09/14 02:56:28;;;;;;;3.47;3.20;;;19.20;99.90;;;;;;5077141;28;20297;-80
2023/09/14 02:58:54;;;;;;;5.60;3.10;;;19.20;99.90;;;;;;5076544;28;20193;-79
2023/09/14 03:01:20;;;;;;;3.63;3.43;;;19.20;99.90;;;;;;5076080;28;20182;-77
2023/09/14 03:03:47;;;;;;;3.40;3.20;;;19.10;99.90;;;;;;5076133;28;20178;-81
2023/09/14 03:06:13;;;;;;;5.27;3.87;;;19.10;99.90;;;;;;5076085;28;20199;-78
2023/09/14 03:08:39;;;;;;;4.97;3.33;;;19.00;99.90;;;;;;5075384;28;20179;-78
2023/09/14 03:11:05;;;;;;;3.17;2.97;;;19.10;99.90;;;;;;5056508;28;20175;-78
2023/09/14 03:13:31;;;;;;;3.33;3.13;;;19.00;99.90;;;;;;5075037;28;20183;-79
2023/09/14 03:15:59;;;;;;;6.00;3.07;;;19.00;99.90;;;;;;5057443;28;20175;-78
2023/09/14 03:18:25;;;;;;;3.53;3.30;;;19.00;99.90;;;;;;5075034;28;20171;-78
2023/09/14 03:20:55;;;;;;;3.77;3.47;;;19.00;99.90;;;;;;5074980;28;20171;-79
2023/09/14 03:23:22;;;;;;;3.27;3.07;;;19.00;99.90;;;;;;5057613;28;20180;-77
2023/09/14 03:25:48;;;;;;;3.60;3.30;;;18.90;99.90;;;;;;5057054;28;20179;-77
2023/09/14 03:28:17;;;;;;;3.43;3.10;;;19.00;99.90;;;;;;5057186;28;20182;-79
2023/09/14 03:30:44;;;;;;;4.70;3.37;;;19.00;99.90;;;;;;5074788;28;20232;-78
2023/09/14 03:33:11;;;;;;;3.20;3.00;;;19.00;99.90;;;;;;5074856;28;20218;-78
2023/09/14 03:35:37;;;;;;;3.60;3.30;;;19.00;99.90;;;;;;5057371;28;20175;-79
2023/09/14 03:38:03;;;;;;;3.60;3.30;;;19.00;99.90;;;;;;5074829;28;20250;-76
2023/09/14 03:40:29;;;;;;;3.10;2.90;;;19.00;99.90;;;;;;5074408;28;20167;-79
2023/09/14 03:42:55;;;;;;;3.43;3.23;;;18.80;99.90;;;;;;5056538;28;20524;-78
2023/09/14 03:45:21;;;;;;;3.53;3.23;;;18.70;99.90;;;;;;5074762;28;20176;-78
2023/09/14 03:47:49;;;;;;;5.63;3.57;;;18.80;99.90;;;;;;5075514;28;20214;-78
2023/09/14 03:50:15;;;;;;;3.33;3.10;;;18.70;99.90;;;;;;5078626;28;20171;-80
2023/09/14 03:52:40;;;;;;;3.77;3.57;;;18.70;99.90;;;;;;5087198;28;20175;-79
2023/09/14 03:55:07;;;;;;;3.40;3.00;;;18.70;99.90;;;;;;5080417;28;20173;-78
2023/09/14 03:57:33;;;;;;;3.13;2.93;;;18.70;99.90;;;;;;5089679;28;20210;-78
2023/09/14 03:59:58;;;;;;;3.30;3.00;;;18.80;99.90;;;;;;5074543;28;20586;-77
2023/09/14 04:02:24;;;;;;;3.50;3.30;;;18.80;99.90;;;;;;5075245;28;20631;-78
2023/09/14 04:04:50;;;;;;;3.60;3.37;;;18.80;99.90;;;;;;5079910;28;20174;-79
2023/09/14 04:07:16;;;;;;;2.87;2.73;;;18.90;99.90;;;;;;5083957;28;20210;-78
2023/09/14 04:09:43;;;;;;;2.90;2.80;;;18.90;99.90;;;;;;5070403;28;20171;-79
2023/09/14 04:12:09;;;;;;;2.73;2.63;;;18.80;99.90;;;;;;5082247;28;20278;-80
2023/09/14 04:14:35;;;;;;;3.03;2.83;;;18.90;99.90;;;;;;5089910;28;20171;-78
2023/09/14 04:17:01;;;;;;;3.20;3.00;;;18.90;99.90;;;;;;5077154;28;20171;-79
2023/09/14 04:19:28;;;;;;;3.70;2.90;;;18.90;99.90;;;;;;5074692;28;20678;-80
2023/09/14 04:21:55;;;;;;;3.50;3.20;;;19.00;99.90;;;;;;5074218;28;20175;-79
2023/09/14 04:24:21;;;;;;;3.07;2.87;;;18.90;99.90;;;;;;5073843;28;20182;-78
2023/09/14 04:26:48;;;;;;;3.53;2.83;;;19.00;99.90;;;;;;5073695;28;20203;-78
2023/09/14 04:29:14;;;;;;;3.23;3.03;;;19.10;99.90;;;;;;5073992;28;20254;-78
2023/09/14 04:31:40;;;;;;;3.43;3.13;;;18.80;99.90;;;;;;5073984;28;20718;-77
2023/09/14 04:34:07;;;;;;;2.93;2.73;;;19.00;99.90;;;;;;5073884;28;20238;-77
2023/09/14 04:36:34;;;;;;;3.07;2.83;;;18.90;99.90;;;;;;5074513;28;20258;-79
2023/09/14 04:39:00;;;;;;;3.20;2.97;;;19.10;99.90;;;;;;5080164;28;20175;-77
2023/09/14 04:41:26;;;;;;;3.17;2.97;;;19.00;99.90;;;;;;5084090;28;20230;-78
2023/09/14 04:43:52;;;;;;;3.20;3.00;;;19.00;99.90;;;;;;5073979;28;20171;-78
2023/09/14 04:46:18;;;;;;;2.83;2.70;;;19.00;99.90;;;;;;5057043;28;20202;-78
2023/09/14 04:48:43;;;;;;;3.13;2.93;;;18.90;99.90;;;;;;5077034;28;20539;-80
2023/09/14 04:51:09;;;;;;;2.80;2.70;;;19.00;99.90;;;;;;5077282;28;20179;-78
2023/09/14 04:53:35;;;;;;;3.23;2.97;;;19.00;99.90;;;;;;5075961;28;20172;-78
2023/09/14 04:56:01;;;;;;;4.67;3.10;;;19.00;99.90;;;;;;5076593;28;20183;-79
2023/09/14 04:58:27;;;;;;;4.00;3.67;;;19.20;99.90;;;;;;5075648;28;20663;-80
2023/09/14 05:00:53;;;;;;;4.40;3.07;;;19.60;99.90;;;;;;5073894;28;20167;-78
2023/09/14 05:03:19;;;;;;;3.13;2.90;;;19.00;99.90;;;;;;5074077;28;20258;-79
2023/09/14 05:05:51;;;;;;;3.40;3.10;;;19.10;99.90;;;;;;5055683;28;20171;-77
2023/09/14 05:08:17;;;;;;;5.53;4.00;;;19.00;99.90;;;;;;5074150;28;20166;-78
2023/09/14 05:10:43;;;;;;;8.40;3.33;;;19.10;99.90;;;;;;5074308;28;20179;-78
2023/09/14 05:13:08;;;;;;;4.23;3.20;;;18.90;99.90;;;;;;5058505;28;20213;-78
2023/09/14 05:15:34;;;;;;;2.93;2.73;;;19.10;99.90;;;;;;5092055;28;20167;-81
2023/09/14 05:18:00;;;;;;;3.50;3.30;;;18.90;99.90;;;;;;5078850;28;20176;-76
2023/09/14 05:20:26;;;;;;;5.43;3.10;;;19.00;99.90;;;;;;5077733;28;20175;-77
2023/09/14 05:22:52;;;;;;;3.27;3.07;;;18.90;99.90;;;;;;5078882;28;20179;-77
2023/09/14 05:25:18;;;;;;;4.57;3.20;;;19.00;99.90;;;;;;5077412;28;20164;-76
2023/09/14 05:27:44;;;;;;;3.30;3.00;;;19.00;99.90;;;;;;5078233;28;20229;-76
2023/09/14 05:30:10;;;;;;;3.17;2.97;;;19.00;99.90;;;;;;5086413;28;20175;-78
2023/09/14 05:32:37;;;;;;;3.43;3.13;;;18.90;99.90;;;;;;5062219;28;20189;-77
2023/09/14 05:35:05;;;;;;;4.10;3.50;;;19.00;99.90;;;;;;5090167;28;20214;-77
2023/09/14 05:37:31;;;;;;;3.40;3.17;;;19.20;99.90;;;;;;5083723;28;20175;-77
2023/09/14 05:39:57;;;;;;;4.23;3.13;;;19.10;99.90;;;;;;5078264;28;20698;-75
2023/09/14 05:42:23;;;;;;;3.50;3.10;;;19.10;99.90;;;;;;5084441;28;20250;-76
2023/09/14 05:44:49;;;;;;;3.40;2.90;;;19.20;99.90;;;;;;5083279;28;20620;-78
2023/09/14 05:47:15;;;;;;;2.90;2.67;;;19.30;99.90;;;;;;5099434;28;20249;-78
2023/09/14 05:49:41;;;;;;;3.17;2.97;;;19.20;99.90;;;;;;5080326;28;20633;-75
2023/09/14 05:52:08;;;;;;;3.73;2.83;;;19.20;99.90;;;;;;5060002;28;20581;-76
2023/09/14 05:54:36;;;;;;;4.23;3.00;;;19.30;99.90;;;;;;5080687;28;20257;-75
2023/09/14 05:57:03;;;;;;;3.20;3.00;;;19.10;99.90;;;;;;5090841;28;20175;-76
2023/09/14 05:59:28;;;;;;;3.47;3.17;;;19.10;99.90;;;;;;5088462;28;20168;-75
2023/09/14 06:01:55;;;;;;;2.80;2.60;;;19.10;99.90;;;;;;5089853;28;20646;-75
2023/09/14 06:04:20;;;;;;;2.93;2.73;;;19.00;99.90;;;;;;5062124;28;20194;-75
2023/09/14 06:06:46;;;;;;;3.53;2.80;;;19.20;99.90;;;;;;5078282;28;20207;-76
2023/09/14 06:09:12;;;;;;;2.37;2.27;;;19.20;99.90;;;;;;5079894;28;20171;-77
2023/09/14 06:11:40;;;;;;;2.30;2.20;;;19.20;99.90;;;;;;5080127;28;20222;-76
2023/09/14 06:14:06;;;;;;;2.67;2.47;;;19.20;99.90;;;;;;5061305;28;20563;-77
2023/09/14 06:16:32;;;;;;;2.73;2.53;;;19.30;99.90;;;;;;5078556;28;20168;-76
2023/09/14 06:18:57;;;;;;;2.83;2.63;;;19.20;99.90;;;;;;5079237;28;20666;-76
2023/09/14 06:21:23;;;;;;;2.60;2.40;;;19.30;99.90;;;;;;5079587;28;20175;-75
2023/09/14 06:23:50;;;;;;;5.30;2.40;;;19.30;99.90;;;;;;5062504;28;20183;-76
2023/09/14 06:26:15;;;;;;;4.83;2.93;;;19.40;99.90;;;;;;5078138;28;20207;-76
2023/09/14 06:28:41;;;;;;;2.70;2.57;;;19.30;99.90;;;;;;5078590;28;20309;-75
2023/09/14 06:31:07;;;;;;;3.60;3.17;;;19.50;99.90;;;;;;5078374;28;20178;-75
2023/09/14 06:33:33;;;;;;;3.03;2.50;;;19.40;99.90;;;;;;5078419;28;20219;-76
2023/09/14 06:35:58;;;;;;;4.50;2.30;;;19.50;99.90;;;;;;5079160;28;20179;-77
2023/09/14 06:38:24;;;;;;;2.67;2.57;;;19.60;99.90;;;;;;5096382;28;20179;-77
2023/09/14 06:40:50;;;;;;;2.50;2.40;;;19.50;99.90;;;;;;5079909;28;20175;-76
2023/09/14 06:43:16;;;;;;;2.67;2.57;;;19.40;99.90;;;;;;5091832;28;20630;-78
2023/09/14 06:45:42;;;;;;;3.43;2.70;;;19.70;99.90;;;;;;5076245;28;20167;-76
2023/09/14 06:48:08;;;;;;;2.40;2.30;;;19.70;99.90;;;;;;5076332;28;20712;-75
2023/09/14 06:50:33;;;;;;;2.53;2.33;;;19.80;99.90;;;;;;5078815;28;20178;-77
2023/09/14 06:52:59;;;;;;;2.47;2.27;;;19.80;99.90;;;;;;5080362;28;20176;-76
2023/09/14 06:55:25;;;;;;;3.13;2.83;;;19.80;99.90;;;;;;5062592;28;20243;-76
2023/09/14 06:57:51;;;;;;;2.20;2.10;;;19.80;99.90;;;;;;5077102;28;20278;-76
2023/09/14 07:00:21;;;;;;;2.33;2.23;;;19.80;99.90;;;;;;5075906;28;20206;-75
2023/09/14 07:02:52;;;;;;;2.37;2.27;;;19.90;99.90;;;;;;5076369;28;20240;-76
2023/09/14 07:05:18;;;;;;;1.90;1.80;;;19.90;99.90;;;;;;5090307;28;20218;-76
2023/09/14 07:07:43;;;;;;;2.43;2.33;;;20.00;99.90;;;;;;5079238;28;20694;-75
2023/09/14 07:10:10;;;;;;;4.10;2.20;;;20.10;99.90;;;;;;5075625;28;20179;-76
2023/09/14 07:12:36;;;;;;;2.73;2.37;;;20.00;99.90;;;;;;5061177;28;20262;-80
2023/09/14 07:15:03;;;;;;;2.30;2.10;;;20.00;99.90;;;;;;5087053;28;20194;-76
2023/09/14 07:17:29;;;;;;;2.50;2.30;;;20.20;99.90;;;;;;5076012;28;20510;-79
2023/09/14 07:19:54;;;;;;;4.10;2.47;;;20.40;99.90;;;;;;5096968;28;20210;-77
2023/09/14 07:22:20;;;;;;;2.67;2.47;;;20.50;99.90;;;;;;5081239;28;20186;-77
2023/09/14 07:24:47;;;;;;;2.40;2.30;;;20.50;99.90;;;;;;5086818;28;20171;-78
2023/09/14 07:27:14;;;;;;;2.33;2.10;;;20.40;99.90;;;;;;5086426;28;20242;-76
2023/09/14 07:29:40;;;;;;;2.30;2.03;;;20.40;99.90;;;;;;5075729;28;20175;-76
2023/09/14 07:32:06;;;;;;;2.33;2.23;;;20.50;99.90;;;;;;5075589;28;20178;-76
2023/09/14 07:34:32;;;;;;;2.70;1.90;;;20.50;99.90;;;;;;5057412;28;20246;-76
2023/09/14 07:36:58;;;;;;;2.00;1.90;;;20.20;99.90;;;;;;5058577;28;20202;-77
2023/09/14 07:39:23;;;;;;;2.33;2.20;;;20.30;99.90;;;;;;5075922;28;20206;-77
2023/09/14 07:41:55;;;;;;;2.30;2.20;;;20.20;99.90;;;;;;5090376;28;20183;-77
2023/09/14 07:44:21;;;;;;;2.53;2.40;;;20.20;99.90;;;;;;5080906;28;20182;-76
2023/09/14 07:46:47;;;;;;;2.50;2.30;;;20.30;99.90;;;;;;5076305;28;20211;-76
2023/09/14 07:49:12;;;;;;;2.57;2.20;;;20.40;99.90;;;;;;5075370;28;20488;-77
2023/09/14 07:51:38;;;;;;;2.40;2.20;;;20.50;99.90;;;;;;5076949;28;20175;-76
2023/09/14 07:54:04;;;;;;;2.27;2.17;;;20.40;99.90;;;;;;5089396;28;20176;-77
2023/09/14 07:56:30;;;;;;;3.20;3.00;;;20.70;99.90;;;;;;5076428;28;20262;-77
2023/09/14 07:58:56;;;;;;;3.13;2.30;;;20.70;99.90;;;;;;5078367;28;20203;-77
2023/09/14 08:01:22;;;;;;;2.30;2.20;;;20.70;99.90;;;;;;5090068;28;20167;-76
2023/09/14 08:03:49;;;;;;;2.13;2.03;;;20.70;99.90;;;;;;5076520;28;20167;-75
2023/09/14 08:06:18;;;;;;;2.80;2.30;;;20.70;99.90;;;;;;5075101;28;20199;-78
2023/09/14 08:08:44;;;;;;;2.47;2.10;;;20.80;99.90;;;;;;5075824;28;20179;-76
2023/09/14 08:11:11;;;;;;;1.93;1.70;;;20.90;99.90;;;;;;5079522;28;20534;-77
2023/09/14 08:13:37;;;;;;;3.03;2.00;;;20.90;99.90;;;;;;5084968;28;20292;-77
2023/09/14 08:16:06;;;;;;;1.97;1.93;;;21.00;99.90;;;;;;5074799;28;20167;-76
2023/09/14 08:18:32;;;;;;;1.93;1.80;;;21.00;99.90;;;;;;5074800;28;20261;-77
2023/09/14 08:20:58;;;;;;;2.10;2.00;;;21.00;99.90;;;;;;5074763;28;20171;-76
2023/09/14 08:23:24;;;;;;;2.57;2.37;;;20.90;99.90;;;;;;5074744;28;20686;-76
2023/09/14 08:25:49;;;;;;;2.17;2.00;;;20.90;99.90;;;;;;5074800;28;20163;-75
2023/09/14 08:28:17;;;;;;;2.20;2.10;;;21.00;99.90;;;;;;5075262;28;20256;-77
2023/09/14 08:30:44;;;;;;;2.43;2.23;;;21.10;99.90;;;;;;5075195;28;20171;-76
2023/09/14 08:33:11;;;;;;;2.33;2.23;;;21.00;99.90;;;;;;5074571;28;20171;-76
2023/09/14 08:35:37;;;;;;;4.83;2.90;;;20.90;99.90;;;;;;5074863;28;20167;-75
2023/09/14 08:38:07;;;;;;;3.20;2.87;;;20.80;99.90;;;;;;5074637;28;20265;-77
2023/09/14 08:40:34;;;;;;;4.57;2.00;;;21.00;99.90;;;;;;5060670;28;20190;-77
2023/09/14 08:43:01;;;;;;;1.90;1.80;;;21.00;99.90;;;;;;5086913;28;20171;-78
2023/09/14 08:45:31;;;;;;;2.10;1.97;;;21.00;99.90;;;;;;5080581;28;20178;-77
2023/09/14 08:47:59;;;;;;;2.00;1.90;;;21.10;99.90;;;;;;5076367;28;20617;-77
2023/09/14 08:50:34;;;;;;;1.80;1.70;;;20.90;99.90;;;;;;5079184;28;20262;-77
2023/09/14 08:53:01;;;;;;;2.20;2.10;;;20.80;99.90;;;;;;5091761;28;20189;-77
2023/09/14 08:55:34;;;;;;;1.83;1.73;;;20.80;99.90;;;;;;5075342;28;20190;-76
2023/09/14 08:58:01;;;;;;;2.10;2.00;;;20.90;99.90;;;;;;5083894;28;20181;-77
2023/09/14 09:00:28;;;;;;;2.60;2.00;;;21.60;99.90;;;;;;5077305;28;20167;-78
2023/09/14 09:02:56;;;;;;;3.33;2.07;;;21.20;99.90;;;;;;5062823;28;20186;-78
2023/09/14 09:05:26;;;;;;;3.00;2.00;;;21.10;99.90;;;;;;5089372;28;20183;-76
2023/09/14 09:07:54;;;;;;;3.13;2.33;;;21.40;99.90;;;;;;5094504;28;20242;-77
2023/09/14 09:10:26;;;;;;;1.90;1.80;;;21.50;99.90;;;;;;5092446;28;20213;-76
2023/09/14 09:12:56;;;;;;;1.67;1.57;;;21.70;99.90;;;;;;5096619;28;20158;-78
2023/09/14 09:15:24;;;;;;;1.63;1.53;;;21.60;99.90;;;;;;5094049;28;20194;-76
2023/09/14 09:18:07;;;;;;;1.50;1.50;;;21.50;99.90;;;;;;5077179;28;20183;-77
2023/09/14 09:20:34;;;;;;;1.63;1.30;;;21.50;99.90;;;;;;5093482;28;20147;-77
2023/09/14 09:23:01;;;;;;;2.73;2.53;;;21.50;99.90;;;;;;5096807;28;20148;-79
2023/09/14 09:25:31;;;;;;;3.70;1.80;;;21.70;99.90;;;;;;5098013;28;20167;-76
2023/09/14 09:28:02;;;;;;;2.07;1.97;;;21.80;99.90;;;;;;5096913;28;20209;-77
2023/09/14 09:30:33;;;;;;;1.83;1.73;;;21.90;99.90;;;;;;5097204;28;20160;-77
2023/09/14 09:32:59;;;;;;;1.63;1.60;;;21.70;99.90;;;;;;5096428;28;20230;-76
2023/09/14 09:35:30;;;;;;;2.50;1.40;;;21.30;99.90;;;;;;5095639;28;20222;-77
2023/09/14 09:38:00;;;;;;;1.60;1.40;;;21.80;99.90;;;;;;5094599;28;20216;-78
2023/09/14 09:40:33;;;;;;;1.30;1.30;;;21.90;99.90;;;;;;5092148;28;20159;-76
2023/09/14 09:43:07;;;;;;;1.73;1.63;;;21.80;99.90;;;;;;5094225;28;20671;-77
2023/09/14 09:45:33;;;;;;;1.20;1.20;;;21.80;99.90;;;;;;5087100;28;20163;-77
2023/09/14 09:48:02;;;;;;;1.57;1.57;;;21.70;99.90;;;;;;5090107;28;20203;-78
2023/09/14 09:50:28;;;;;;;1.43;1.43;;;21.80;99.90;;;;;;5087539;28;20191;-77
2023/09/14 09:52:54;;;;;;;1.20;1.20;;;21.90;99.90;;;;;;5091525;28;20167;-76
2023/09/14 09:55:25;;;;;;;1.30;1.20;;;22.00;99.90;;;;;;5087970;28;20262;-78
2023/09/14 09:57:52;;;;;;;1.40;1.30;;;21.90;99.90;;;;;;5074936;28;20258;-78
2023/09/14 10:00:20;;;;;;;1.10;1.10;;;22.00;99.90;;;;;;5078858;28;20202;-76
2023/09/14 10:02:47;;;;;;;1.35;1.35;;;22.20;99.90;;;;;;5078396;28;20179;-77
2023/09/14 10:05:14;;;;;;;1.53;1.43;;;22.30;99.90;;;;;;5077578;28;20171;-78
2023/09/14 10:07:41;;;;;;;1.48;1.38;;;22.30;99.90;;;;;;5078085;28;20207;-76
2023/09/14 10:10:12;;;;;;;1.80;1.70;;;22.70;99.90;;;;;;5078096;28;20627;-78
2023/09/14 10:12:39;;;;;;;1.50;1.50;;;22.60;99.90;;;;;;5060557;28;20186;-78
2023/09/14 10:15:08;;;;;;;1.50;1.50;;;22.60;99.90;;;;;;5080908;28;20258;-78
2023/09/14 10:17:35;;;;;;;1.10;1.10;;;22.70;99.90;;;;;;5078036;28;20677;-79
2023/09/14 10:20:08;;;;;;;1.52;1.42;;;22.70;99.90;;;;;;5083750;28;20190;-77
2023/09/14 10:22:36;;;;;;;1.25;1.23;;;22.70;99.90;;;;;;5081429;28;20155;-80
2023/09/14 10:25:04;;;;;;;2.65;1.50;;;22.70;99.90;;;;;;5079417;28;20163;-77
2023/09/14 10:27:30;;;;;;;1.20;1.20;;;22.60;99.90;;;;;;5086136;28;20214;-77
2023/09/14 10:29:57;;;;;;;1.13;1.13;;;22.60;99.90;;;;;;5070603;28;20191;-78
2023/09/14 10:32:25;;;;;;;1.25;1.15;;;22.40;99.90;;;;;;5067621;28;20191;-77
2023/09/14 10:34:52;;;;;;;1.10;1.10;;;22.40;99.90;;;;;;5077193;28;20706;-76
2023/09/14 10:37:23;;;;;;;1.07;1.07;;;22.30;99.90;;;;;;5077170;28;20182;-78
2023/09/14 10:39:51;;;;;;;1.17;1.17;;;22.20;99.90;;;;;;5059004;28;20557;-77
2023/09/14 10:42:17;;;;;;;1.10;1.10;;;22.10;99.90;;;;;;5093764;28;20163;-77
2023/09/14 10:44:44;;;;;;;1.30;1.20;;;22.30;99.90;;;;;;5079869;28;20181;-77
2023/09/14 10:47:13;;;;;;;1.00;1.00;;;22.20;99.90;;;;;;5084031;28;20745;-76
2023/09/14 10:49:41;;;;;;;1.10;1.10;;;22.30;99.90;;;;;;5058754;28;20630;-77
2023/09/14 10:52:08;;;;;;;1.65;1.20;;;22.30;99.90;;;;;;5077288;28;20179;-77
2023/09/14 10:54:35;;;;;;;1.35;1.23;;;22.50;99.90;;;;;;5080522;28;20163;-77
2023/09/14 10:57:02;;;;;;;0.90;0.90;;;22.60;99.90;;;;;;5086482;28;20199;-78
2023/09/14 10:59:51;;;;;;;1.08;1.08;;;22.50;99.90;;;;;;5076849;28;20631;-77
2023/09/14 11:02:39;;;;;;;1.20;1.20;;;22.40;99.90;;;;;;5076259;28;20171;-76
2023/09/14 11:05:16;;;;;;;1.20;1.20;;;22.50;99.90;;;;;;5076070;28;20221;-79
2023/09/14 11:08:04;;;;;;;2.70;1.40;;;22.70;99.90;;;;;;5061000;28;20202;-78
2023/09/14 11:10:31;;;;;;;1.10;1.10;;;22.50;99.90;;;;;;5088583;28;20183;-77
2023/09/14 11:13:18;;;;;;;1.33;1.33;;;22.60;99.90;;;;;;5085285;28;20182;-78
2023/09/14 11:15:49;;;;;;;1.30;1.30;;;22.50;99.90;;;;;;5079381;28;20539;-78
2023/09/14 11:18:20;;;;;;;1.47;1.47;;;22.70;99.90;;;;;;5061896;28;20601;-78
2023/09/14 11:20:46;;;;;;;2.50;1.50;;;22.60;99.90;;;;;;5076546;28;20167;-77
2023/09/14 11:23:12;;;;;;;1.20;1.20;;;22.70;99.90;;;;;;5057666;28;20563;-77
2023/09/14 11:25:42;;;;;;;1.40;1.30;;;22.50;99.90;;;;;;5077591;28;20175;-76
2023/09/14 11:28:18;;;;;;;1.30;1.30;;;23.00;99.90;;;;;;5075852;28;20206;-77
2023/09/14 11:30:46;;;;;;;1.20;1.20;;;22.90;99.90;;;;;;5077849;28;20163;-77
2023/09/14 11:33:13;;;;;;;1.57;1.47;;;22.70;99.90;;;;;;5083482;28;20171;-78
2023/09/14 11:35:45;;;;;;;1.50;1.40;;;22.80;99.90;;;;;;5082684;28;20167;-76
2023/09/14 11:38:25;;;;;;;1.63;1.30;;;22.70;99.90;;;;;;5057828;28;20202;-77
2023/09/14 11:40:53;;;;;;;1.47;1.47;;;22.90;99.90;;;;;;5075798;28;20623;-76
2023/09/14 11:45:51;;;;;;;1.52;1.52;;;23.20;99.90;;;;;;5076063;28;20668;-78
2023/09/14 11:48:20;;;;;;;2.33;1.20;;;23.40;99.90;;;;;;5056967;28;20214;-78
2023/09/14 11:50:51;;;;;;;2.15;1.20;;;23.80;99.90;;;;;;5057534;28;20224;-78
2023/09/14 11:53:19;;;;;;;1.20;1.10;;;23.90;99.90;;;;;;5078014;28;20515;-76
2023/09/14 11:55:49;;;;;;;1.10;1.10;;;23.60;99.90;;;;;;5082259;28;20167;-78
2023/09/14 11:58:15;;;;;;;1.20;1.20;;;24.00;99.90;;;;;;5095142;28;20180;-77
2023/09/14 12:00:43;;;;;;;1.17;1.17;;;;;;;;;;5075644;28;20172;-78
2023/09/14 12:03:09;;;;;;;1.02;1.02;;;24.10;99.90;;;;;;5074667;28;20175;-78
2023/09/14 12:05:35;;;;;;;1.13;1.13;;;24.30;99.90;;;;;;5075203;28;20255;-79
2023/09/14 12:08:12;;;;;;;1.33;1.33;;;24.70;99.90;;;;;;5078051;28;20210;-79
2023/09/14 12:10:38;;;;;;;1.05;1.05;;;24.60;99.90;;;;;;5089825;28;20167;-79
2023/09/14 12:13:10;;;;;;;2.17;1.40;;;24.60;99.90;;;;;;5075045;28;20170;-78
2023/09/14 12:15:36;;;;;;;1.83;1.30;;;24.50;99.90;;;;;;5074856;28;20171;-79
2023/09/14 12:18:03;;;;;;;1.38;1.38;;;24.60;99.90;;;;;;5074853;28;20201;-78
2023/09/14 12:20:29;;;;;;;1.27;1.27;;;24.40;99.90;;;;;;5075093;28;20187;-79
2023/09/14 12:22:56;;;;;;;1.48;1.40;;;24.60;99.90;;;;;;5079654;28;20179;-77
2023/09/14 12:25:22;;;;;;;1.25;1.25;;;24.60;99.90;;;;;;5075010;28;20168;-78
2023/09/14 12:27:49;;;;;;;1.42;1.42;;;24.50;99.90;;;;;;5074600;28;20210;-77
2023/09/14 12:30:16;;;;;;;1.42;1.33;;;24.80;99.90;;;;;;5074323;28;20171;-79
2023/09/14 12:32:42;;;;;;;2.22;1.42;;;25.50;99.90;;;;;;5074298;28;20171;-78
2023/09/14 12:35:10;;;;;;;1.38;1.38;;;24.90;99.90;;;;;;5073846;28;20225;-78
2023/09/14 12:37:36;;;;;;;1.45;1.35;;;24.90;99.90;;;;;;5074557;28;20171;-78
2023/09/14 12:40:10;;;;;;;1.15;1.15;;;24.40;99.90;;;;;;5074625;28;20170;-79
2023/09/14 12:42:36;;;;;;;1.38;1.38;;;24.40;99.90;;;;;;5074539;28;20245;-78
2023/09/14 12:45:07;;;;;;;1.50;1.40;;;24.40;99.90;;;;;;5074034;28;20167;-78
2023/09/14 12:47:33;;;;;;;1.75;1.65;;;24.60;99.90;;;;;;5056244;28;20210;-80
2023/09/14 12:49:59;;;;;;;1.58;1.58;;;24.30;99.90;;;;;;5075384;28;20259;-79
2023/09/14 12:52:26;;;;;;;1.58;1.58;;;24.10;99.90;;;;;;5075111;28;20179;-80